Time;durP1;ratioP1;P1;durP2;ratioP2;P2;SDS_P1;SDS_P2;PMS_P1;PMS_P2;Temp;Humidity;BMP_temperature;BMP_pressure;BME280_temperature;BME280_humidity;BME280_pressure;Samples;Min_cycle;Max_cycle;Signal;HPM_P1;HPM_P2
2022/05/23 00:00:36;;;;;;;3.20;2.50;;;;;;;22.22;46.67;98545.09;4127742;28;20292;-65
2022/05/23 00:02:38;;;;;;;2.53;2.33;;;;;;;22.28;46.30;98541.34;4126607;28;20312;-64
2022/05/23 00:04:40;;;;;;;4.50;3.13;;;;;;;21.95;47.02;98544.44;4125596;28;20302;-65
2022/05/23 00:06:42;;;;;;;3.60;2.60;;;;;;;22.04;47.03;98540.97;4124229;28;20245;-64
2022/05/23 00:08:44;;;;;;;4.60;2.70;;;;;;;22.56;46.07;98528.44;4126043;28;20229;-64
2022/05/23 00:10:46;;;;;;;3.63;2.63;;;;;;;21.94;47.10;98540.91;4130717;28;20698;-63
2022/05/23 00:12:48;;;;;;;3.83;2.53;;;;;;;22.05;47.03;98542.59;4133362;28;20260;-65
2022/05/23 00:14:51;;;;;;;3.00;2.63;;;;;;;22.06;47.05;98538.81;4130310;28;22304;-65
2022/05/23 00:16:53;;;;;;;3.87;2.93;;;;;;;22.09;47.30;98530.16;4129955;28;20769;-65
2022/05/23 00:18:54;;;;;;;3.57;2.60;;;;;;;22.23;47.14;98524.25;4130327;28;20269;-64
2022/05/23 00:20:56;;;;;;;9.83;2.70;;;;;;;21.91;47.36;98517.91;4122239;28;20362;-65
2022/05/23 00:22:58;;;;;;;5.67;2.77;;;;;;;21.71;47.76;98521.34;4127239;28;20736;-63
2022/05/23 00:24:59;;;;;;;6.27;2.63;;;;;;;22.12;47.25;98515.28;4127631;28;20296;-64
2022/05/23 00:27:01;;;;;;;4.23;2.60;;;;;;;22.14;47.07;98510.44;4132677;28;20292;-64
2022/05/23 00:29:03;;;;;;;4.03;3.10;;;;;;;21.88;47.83;98502.22;4125726;28;20238;-64
2022/05/23 00:31:06;;;;;;;3.50;2.70;;;;;;;21.59;48.32;98495.53;4125549;28;20312;-65
2022/05/23 00:35:29;;;;;;;5.73;2.67;;;;;;;21.61;48.35;98479.84;4129426;28;20242;-65
2022/05/23 00:37:31;;;;;;;5.07;2.53;;;;;;;21.78;48.43;98493.22;4129769;28;20284;-65
2022/05/23 00:39:32;;;;;;;3.03;2.73;;;;;;;21.48;48.84;98490.06;4130804;28;20703;-65
2022/05/23 00:44:04;;;;;;;4.57;2.80;;;;;;;21.85;47.92;98472.13;4123975;28;20237;-65
2022/05/23 00:46:05;;;;;;;3.77;3.27;;;;;;;22.02;47.81;98470.06;4125728;28;20707;-63
2022/05/23 00:48:09;;;;;;;3.70;2.80;;;;;;;21.83;48.05;98466.19;4128230;28;20707;-63
2022/05/23 00:50:14;;;;;;;3.10;2.70;;;;;;;21.47;48.78;98455.97;4128763;28;20777;-63
2022/05/23 00:52:32;;;;;;;3.77;2.30;;;;;;;21.42;48.93;98449.75;4127993;28;20233;-64
2022/05/23 00:54:46;;;;;;;4.10;2.70;;;;;;;21.04;50.05;98430.88;4124393;28;20753;-63
2022/05/23 00:56:50;;;;;;;4.20;2.40;;;;;;;21.13;49.72;98431.19;4130517;28;20303;-64
2022/05/23 00:58:56;;;;;;;2.87;2.23;;;;;;;21.49;48.87;98436.78;4124792;28;20324;-65
2022/05/23 01:01:04;;;;;;;3.67;2.37;;;;;;;22.14;47.81;98431.91;4130860;28;20298;-63
2022/05/23 01:03:10;;;;;;;5.33;2.60;;;;;;;21.70;48.46;98446.66;4134146;28;20233;-65
2022/05/23 01:05:12;;;;;;;5.83;2.37;;;;;;;21.61;48.59;98448.19;4138834;28;20271;-63
2022/05/23 01:07:14;;;;;;;8.77;2.43;;;;;;;21.45;49.03;98449.22;4124172;28;20245;-65
2022/05/23 01:09:16;;;;;;;3.20;2.37;;;;;;;21.39;48.91;98445.66;4133615;28;20295;-64
2022/05/23 01:11:19;;;;;;;2.90;2.20;;;;;;;21.48;48.84;98446.81;4133221;28;20292;-65
2022/05/23 01:13:20;;;;;;;4.27;2.60;;;;;;;21.57;48.64;98451.72;4129756;28;20233;-64
2022/05/23 01:15:26;;;;;;;2.93;2.37;;;;;;;21.83;48.19;98460.78;4136141;28;20818;-65
2022/05/23 01:17:29;;;;;;;3.40;2.50;;;;;;;21.41;49.00;98461.63;4133886;28;20304;-65
2022/05/23 01:19:30;;;;;;;3.40;3.00;;;;;;;21.19;49.65;98459.88;4127844;28;20257;-63
2022/05/23 01:21:43;;;;;;;3.97;3.03;;;;;;;21.35;49.33;98448.06;4134310;28;20230;-64
2022/05/23 01:23:54;;;;;;;3.53;2.50;;;;;;;21.89;48.34;98462.44;4130128;28;20238;-65
2022/05/23 01:25:56;;;;;;;4.03;2.80;;;;;;;20.94;50.00;98455.91;4134520;28;20237;-65
2022/05/23 01:27:58;;;;;;;3.53;2.50;;;;;;;20.76;50.58;98453.59;4135648;28;20233;-64
2022/05/23 01:29:59;;;;;;;4.17;3.23;;;;;;;20.72;50.71;98439.81;4126359;28;20229;-65
2022/05/23 01:32:01;;;;;;;3.53;2.57;;;;;;;20.39;51.20;98438.16;4129910;28;20234;-65
2022/05/23 01:34:05;;;;;;;3.27;2.63;;;;;;;20.33;51.37;98433.78;4137491;28;20236;-64
2022/05/23 01:36:14;;;;;;;3.90;2.50;;;;;;;19.52;53.27;98427.97;4137904;28;20233;-64
2022/05/23 01:38:16;;;;;;;3.60;2.67;;;;;;;18.93;54.38;98424.97;4125685;28;20283;-65
2022/05/23 01:40:19;;;;;;;3.27;2.63;;;;;;;19.82;52.53;98407.03;4134077;28;20233;-64
2022/05/23 01:42:20;;;;;;;3.63;2.73;;;;;;;20.35;51.78;98401.97;4135398;28;20300;-64
2022/05/23 01:44:22;;;;;;;3.20;2.90;;;;;;;20.23;51.95;98411.00;4138760;28;20225;-63
2022/05/23 01:46:24;;;;;;;3.10;2.80;;;;;;;20.27;51.60;98405.13;4134265;28;20241;-64
2022/05/23 01:48:26;;;;;;;3.17;2.87;;;;;;;20.34;51.22;98411.91;4135072;28;20242;-64
2022/05/23 01:50:28;;;;;;;3.73;3.10;;;;;;;21.09;50.00;98408.47;4134022;28;20620;-65
2022/05/23 01:52:30;;;;;;;3.77;2.77;;;;;;;20.85;50.50;98405.31;4138388;28;20918;-64
2022/05/23 01:54:32;;;;;;;3.17;2.83;;;;;;;21.27;49.71;98399.09;4130541;28;20234;-64
2022/05/23 01:56:33;;;;;;;3.37;2.87;;;;;;;20.81;50.67;98405.00;4132245;28;20226;-65
2022/05/23 02:01:13;;;;;;;6.87;2.70;;;;;;;21.02;50.04;98397.88;4131060;28;20287;-64
2022/05/23 02:03:15;;;;;;;5.40;2.77;;;;;;;20.78;50.48;98405.53;4131102;28;20240;-65
2022/05/23 02:05:18;;;;;;;2.73;2.30;;;;;;;20.88;50.26;98404.78;4129503;28;20237;-65
2022/05/23 02:07:20;;;;;;;3.40;2.57;;;;;;;20.56;50.97;98395.63;4136149;28;20280;-65
2022/05/23 02:09:27;;;;;;;3.00;2.50;;;;;;;20.58;51.10;98395.38;4130616;28;20720;-63
2022/05/23 02:11:28;;;;;;;3.90;2.47;;;;;;;20.44;51.53;98395.00;4139976;28;20312;-64
2022/05/23 02:13:33;;;;;;;2.73;2.47;;;;;;;20.75;50.59;98395.25;4129042;28;20233;-64
2022/05/23 02:15:34;;;;;;;5.40;2.97;;;;;;;21.03;50.24;98387.91;4133903;28;20268;-64
2022/05/23 02:17:36;;;;;;;5.17;3.00;;;;;;;21.12;50.06;98403.38;4132990;28;20233;-63
2022/05/23 02:19:38;;;;;;;5.70;2.80;;;;;;;20.99;50.17;98393.81;4135740;28;20628;-63
2022/05/23 02:21:40;;;;;;;4.77;3.10;;;;;;;20.79;50.51;98391.75;4133178;28;20232;-65
2022/05/23 02:23:42;;;;;;;5.43;2.90;;;;;;;20.83;50.48;98391.25;4133610;28;20238;-67
2022/05/23 02:25:45;;;;;;;3.37;2.53;;;;;;;21.17;50.05;98381.78;4133102;28;20284;-66
2022/05/23 02:27:47;;;;;;;3.67;2.60;;;;;;;20.73;50.56;98379.28;4134552;28;20863;-67
2022/05/23 02:29:49;;;;;;;3.53;2.80;;;;;;;20.64;51.23;98372.75;4134339;28;20265;-67
2022/05/23 02:31:51;;;;;;;2.77;2.57;;;;;;;20.51;51.19;98376.69;4128551;28;20669;-66
2022/05/23 02:33:52;;;;;;;5.77;2.70;;;;;;;20.96;50.46;98355.72;4136126;28;20241;-67
2022/05/23 02:35:54;;;;;;;3.43;2.77;;;;;;;20.68;50.96;98365.75;4131893;28;20237;-67
2022/05/23 02:37:56;;;;;;;3.57;2.80;;;;;;;20.88;50.58;98362.38;4128317;28;20237;-68
2022/05/23 02:39:58;;;;;;;4.07;2.83;;;;;;;20.74;50.67;98372.03;4125547;28;20268;-67
2022/05/23 02:41:59;;;;;;;3.70;2.90;;;;;;;20.50;51.26;98371.56;4122622;28;20786;-67
2022/05/23 02:44:01;;;;;;;4.40;2.80;;;;;;;20.60;51.25;98369.75;4131917;28;20240;-67
2022/05/23 02:46:03;;;;;;;5.10;3.10;;;;;;;20.78;50.57;98373.13;4130043;28;20229;-66
2022/05/23 02:48:07;;;;;;;3.97;3.43;;;;;;;20.81;50.96;98376.09;4135930;28;20263;-66
2022/05/23 02:50:11;;;;;;;5.93;3.80;;;;;;;20.78;50.81;98370.41;4130981;28;20691;-67
2022/05/23 02:52:13;;;;;;;5.50;3.63;;;;;;;20.90;50.30;98379.13;4133682;28;20717;-67
2022/05/23 02:54:15;;;;;;;5.10;3.50;;;;;;;21.07;50.13;98368.19;4126650;28;20238;-66
2022/05/23 02:56:17;;;;;;;5.53;3.87;;;;;;;21.12;49.99;98373.63;4130683;28;20597;-67
2022/05/23 02:58:19;;;;;;;5.50;3.53;;;;;;;20.41;51.56;98374.72;4134352;28;20237;-67
2022/05/23 03:00:21;;;;;;;4.90;3.97;;;;;;;20.19;52.13;98374.78;4146882;28;20233;-66
2022/05/23 03:04:43;;;;;;;4.93;2.83;;;;;;;20.55;51.38;98456.13;4130935;28;20269;-66
2022/05/23 03:06:45;;;;;;;3.47;2.63;;;;;;;19.88;53.16;98532.81;4127410;28;20296;-66
2022/05/23 03:08:47;;;;;;;4.43;2.50;;;;;;;19.23;54.50;98588.19;4128044;28;20273;-67
2022/05/23 03:10:51;;;;;;;4.83;2.83;;;;;;;19.32;53.79;98627.16;4125165;28;20663;-66
2022/05/23 03:12:53;;;;;;;3.30;2.90;;;;;;;19.04;54.84;98607.25;4133303;28;20237;-65
2022/05/23 03:14:55;;;;;;;4.20;2.63;;;;;;;20.06;52.51;98569.44;4132732;28;20260;-66
2022/05/23 03:17:01;;;;;;;6.57;3.10;;;;;;;20.66;51.07;98566.94;4124929;28;20253;-66
2022/05/23 03:19:04;;;;;;;3.63;2.30;;;;;;;21.00;50.56;98570.25;4127878;28;20234;-66
2022/05/23 03:21:09;;;;;;;6.00;3.23;;;;;;;20.86;51.28;98583.34;4128194;28;20629;-68
2022/05/23 03:27:51;;;;;;;5.00;3.67;;;;;;;20.50;53.49;98596.50;4127083;28;20234;-67
2022/05/23 03:29:53;;;;;;;7.17;3.27;;;;;;;20.81;53.43;98592.22;4126414;28;20241;-67
2022/05/23 03:31:55;;;;;;;6.03;3.30;;;;;;;20.18;55.36;98601.72;4125660;28;20304;-67
2022/05/23 03:33:57;;;;;;;7.40;3.60;;;;;;;20.81;54.26;98599.50;4129110;28;20237;-68
2022/05/23 03:36:00;;;;;;;5.53;3.27;;;;;;;21.18;53.71;98615.03;4120949;28;20296;-67
2022/05/23 03:38:04;;;;;;;5.47;3.47;;;;;;;21.19;53.03;98635.56;4127119;28;20234;-67
2022/05/23 03:40:07;;;;;;;8.00;3.33;;;;;;;21.28;53.08;98638.63;4124546;28;20235;-67
2022/05/23 03:42:09;;;;;;;5.60;3.10;;;;;;;20.84;54.27;98658.44;4127420;28;20288;-67
2022/05/23 03:44:10;;;;;;;8.17;3.80;;;;;;;20.28;56.51;98647.78;4128265;28;20233;-67
2022/05/23 03:46:13;;;;;;;6.30;3.90;;;;;;;20.68;55.19;98632.31;4128885;28;20241;-68
2022/05/23 03:48:16;;;;;;;6.93;4.20;;;;;;;20.22;56.04;98654.13;4123590;28;20244;-66
2022/05/23 03:50:19;;;;;;;6.07;3.83;;;;;;;20.68;55.11;98643.94;4125062;28;20242;-68
2022/05/23 03:52:21;;;;;;;4.77;3.70;;;;;;;21.03;54.70;98634.63;4129281;28;20226;-68
2022/05/23 03:54:22;;;;;;;6.57;3.50;;;;;;;20.41;55.81;98655.50;4131733;28;20709;-69
2022/05/23 03:56:24;;;;;;;6.10;3.40;;;;;;;21.28;54.01;98639.44;4131885;28;20941;-68
2022/05/23 03:58:28;;;;;;;3.80;3.33;;;;;;;21.10;55.16;98634.41;4128022;28;20240;-67
2022/05/23 04:00:29;;;;;;;5.27;3.47;;;;;;;20.73;55.45;98657.50;4135504;28;20723;-68
2022/05/23 04:02:32;;;;;;;6.20;4.10;;;;;;;19.82;58.37;98656.00;4131426;28;20785;-67
2022/05/23 04:04:33;;;;;;;5.43;3.90;;;;;;;20.64;56.57;98642.81;4134460;28;20333;-68
2022/05/23 04:06:41;;;;;;;6.00;3.30;;;;;;;20.71;56.11;98637.22;4126518;28;20267;-67
2022/05/23 04:08:43;;;;;;;5.67;3.63;;;;;;;20.87;56.39;98620.13;4127291;28;21018;-68
2022/05/23 04:10:44;;;;;;;5.13;4.00;;;;;;;21.55;54.99;98606.13;4133972;28;20703;-68
2022/05/23 04:12:46;;;;;;;8.70;3.77;;;;;;;21.97;53.54;98618.88;4129444;28;20262;-67
2022/05/23 04:14:48;;;;;;;8.57;3.80;;;;;;;18.79;62.03;98647.97;4132250;28;20292;-68
2022/05/23 04:16:54;;;;;;;7.93;3.93;;;;;;;18.18;64.05;98629.53;4130499;28;20304;-67
2022/05/23 04:18:56;;;;;;;6.27;3.80;;;;;;;17.60;66.07;98615.03;4131051;28;20244;-67
2022/05/23 04:20:58;;;;;;;7.13;3.97;;;;;;;17.70;65.73;98592.97;4128029;28;20627;-67
2022/05/23 04:23:00;;;;;;;5.53;4.00;;;;;;;19.27;61.31;98581.25;4132222;28;20237;-67
2022/05/23 04:25:03;;;;;;;7.00;3.60;;;;;;;21.00;56.51;98554.06;4137522;28;20683;-67
2022/05/23 04:27:05;;;;;;;6.07;4.30;;;;;;;21.59;54.61;98557.75;4131719;28;20234;-67
2022/05/23 04:29:07;;;;;;;6.83;4.17;;;;;;;20.47;57.84;98577.28;4127835;28;20268;-67
2022/05/23 04:31:10;;;;;;;7.80;4.20;;;;;;;18.58;62.77;98582.97;4127426;28;20229;-67
2022/05/23 04:35:33;;;;;;;6.87;4.23;;;;;;;21.03;56.96;98545.44;4124150;28;20243;-68
2022/05/23 04:37:34;;;;;;;6.87;4.73;;;;;;;21.42;55.21;98533.56;4122177;28;20229;-68
2022/05/23 04:39:36;;;;;;;8.87;4.10;;;;;;;20.73;56.84;98500.84;4121731;28;20296;-69
2022/05/23 04:41:38;;;;;;;5.93;4.30;;;;;;;20.99;56.60;98493.81;4145058;28;20299;-67
2022/05/23 04:43:40;;;;;;;5.83;4.13;;;;;;;20.94;56.44;98482.91;4128954;28;20225;-70
2022/05/23 04:45:42;;;;;;;6.50;4.13;;;;;;;21.09;56.00;98481.44;4128945;28;20783;-68
2022/05/23 04:50:06;;;;;;;5.27;3.90;;;;;;;20.92;55.40;98455.34;4126240;28;20238;-68
2022/05/23 04:52:11;;;;;;;5.70;3.93;;;;;;;21.21;56.19;98419.06;4127559;28;20820;-68
2022/05/23 04:54:13;;;;;;;6.07;4.03;;;;;;;20.64;56.84;98412.47;4131356;28;20275;-68
2022/05/23 04:56:15;;;;;;;7.30;4.27;;;;;;;19.98;58.43;98379.16;4125771;28;20314;-67
2022/05/23 04:58:17;;;;;;;7.53;4.00;;;;;;;20.00;58.40;98347.34;4130288;28;20249;-67
2022/05/23 05:00:20;;;;;;;5.53;4.20;;;;;;;20.50;57.58;98307.59;4123273;28;20237;-69
2022/05/23 05:02:22;;;;;;;9.13;4.40;;;;;;;20.24;58.19;98314.63;4122287;28;20233;-67
2022/05/23 05:04:24;;;;;;;6.23;4.37;;;;;;;20.24;58.06;98315.44;4134564;28;20237;-67
2022/05/23 05:06:26;;;;;;;6.23;4.53;;;;;;;20.53;57.31;98317.03;4128978;28;20314;-67
2022/05/23 05:08:28;;;;;;;9.03;4.60;;;;;;;20.25;58.00;98335.97;4128173;28;20236;-67
2022/05/23 05:10:30;;;;;;;7.07;3.90;;;;;;;18.93;61.26;98371.13;4130875;28;20234;-68
2022/05/23 05:12:32;;;;;;;4.20;3.50;;;;;;;18.20;63.33;98408.69;4120478;28;20234;-67
2022/05/23 05:14:34;;;;;;;4.77;3.73;;;;;;;17.27;66.76;98379.13;4124159;28;20626;-67
2022/05/23 05:16:36;;;;;;;6.13;4.73;;;;;;;19.54;60.63;98338.75;4127138;28;20236;-67
2022/05/23 05:18:38;;;;;;;7.37;4.47;;;;;;;20.39;58.56;98322.06;4135581;28;20238;-67
2022/05/23 05:20:40;;;;;;;8.90;3.70;;;;;;;20.86;57.31;98321.31;4130745;28;20277;-67
2022/05/23 05:22:42;;;;;;;4.97;3.90;;;;;;;21.02;56.09;98327.63;4127916;28;20288;-67
2022/05/23 05:24:44;;;;;;;5.10;3.80;;;;;;;21.41;55.50;98343.50;4124741;28;20284;-69
2022/05/23 05:26:45;;;;;;;5.63;4.07;;;;;;;21.26;55.69;98356.91;4138283;28;20245;-68
2022/05/23 05:28:47;;;;;;;5.70;3.87;;;;;;;20.48;57.17;98355.59;4127489;28;20242;-67
2022/05/23 05:31:00;;;;;;;6.67;3.50;;;;;;;20.89;56.90;98352.41;4126024;28;20941;-67
2022/05/23 05:33:16;;;;;;;8.00;4.03;;;;;;;21.28;56.52;98355.59;4133164;28;20352;-68
2022/05/23 05:35:36;;;;;;;7.50;4.40;;;;;;;21.16;56.88;98366.63;4130174;28;20237;-67
2022/05/23 05:37:45;;;;;;;6.40;4.20;;;;;;;21.29;55.79;98367.22;4127976;28;20252;-68
2022/05/23 05:39:49;;;;;;;7.30;4.33;;;;;;;21.49;55.15;98382.72;4125733;28;20242;-69
2022/05/23 05:42:07;;;;;;;6.07;3.47;;;;;;;21.48;55.73;98376.50;4131595;28;20258;-67
2022/05/23 05:44:14;;;;;;;4.80;4.00;;;;;;;21.68;54.89;98356.84;4132992;28;20281;-67
2022/05/23 05:46:24;;;;;;;5.30;4.23;;;;;;;21.76;55.07;98355.50;4129541;28;20237;-68
2022/05/23 05:48:27;;;;;;;5.90;4.00;;;;;;;21.49;55.75;98369.19;4132158;28;20229;-67
2022/05/23 05:50:38;;;;;;;5.73;4.00;;;;;;;21.32;56.67;98367.50;4129677;28;20242;-67
2022/05/23 05:52:40;;;;;;;6.33;4.23;;;;;;;21.67;55.94;98367.94;4113689;28;20253;-68
2022/05/23 05:54:42;;;;;;;6.93;4.13;;;;;;;20.81;57.77;98365.31;4125258;28;20238;-67
2022/05/23 05:56:45;;;;;;;4.10;3.70;;;;;;;21.80;55.08;98369.31;4121537;28;20284;-68
2022/05/23 05:58:48;;;;;;;6.27;3.93;;;;;;;22.50;53.61;98377.81;4125460;28;20237;-68
2022/05/23 06:00:50;;;;;;;5.43;3.80;;;;;;;22.37;53.93;98381.91;4128867;28;20245;-69
2022/05/23 06:02:52;;;;;;;5.73;4.70;;;;;;;22.41;53.60;98391.09;4130966;28;20238;-67
2022/05/23 06:04:54;;;;;;;7.67;5.50;;;;;;;21.44;55.62;98399.72;4129501;28;20309;-67
2022/05/23 06:11:37;;;;;;;6.03;4.60;;;;;;;20.96;57.02;98393.53;4136766;28;20233;-67
2022/05/23 06:13:39;;;;;;;8.90;5.13;;;;;;;20.97;57.51;98373.53;4132773;28;20229;-68
2022/05/23 06:15:41;;;;;;;8.53;5.10;;;;;;;20.66;58.03;98370.59;4131056;28;20240;-69
2022/05/23 06:17:43;;;;;;;6.13;5.03;;;;;;;21.15;57.73;98364.19;4130154;28;20606;-68
2022/05/23 06:19:46;;;;;;;8.83;5.70;;;;;;;20.85;57.97;98384.50;4134848;28;20605;-68
2022/05/23 06:21:48;;;;;;;10.77;6.00;;;;;;;20.57;59.22;98366.78;4126815;28;20272;-69
2022/05/23 06:23:50;;;;;;;7.33;5.47;;;;;;;20.31;60.17;98380.03;4134489;28;20230;-68
2022/05/23 06:25:52;;;;;;;7.27;5.73;;;;;;;20.74;59.16;98378.22;4131909;28;20538;-68
2022/05/23 06:27:53;;;;;;;12.13;5.87;;;;;;;21.45;57.56;98382.44;4134212;28;20750;-67
2022/05/23 06:29:55;;;;;;;8.27;5.40;;;;;;;20.72;58.49;98402.00;4132248;28;20310;-69
2022/05/23 06:31:57;;;;;;;7.50;5.30;;;;;;;21.73;56.19;98394.75;4132704;28;20299;-68
2022/05/23 06:33:58;;;;;;;9.17;6.20;;;;;;;21.27;57.23;98410.72;4133615;28;20237;-68
2022/05/23 06:36:00;;;;;;;6.40;5.43;;;;;;;21.25;56.87;98412.88;4132244;28;20284;-68
2022/05/23 06:38:02;;;;;;;11.20;6.00;;;;;;;20.76;57.75;98422.00;4134398;28;20218;-68
2022/05/23 06:40:05;;;;;;;6.57;5.37;;;;;;;20.66;58.69;98413.00;4136412;28;20237;-67
2022/05/23 06:42:07;;;;;;;6.73;5.33;;;;;;;20.49;59.40;98411.25;4137555;28;20299;-69
2022/05/23 06:44:09;;;;;;;6.47;5.73;;;;;;;20.74;58.86;98397.13;4130829;28;20233;-67
2022/05/23 06:46:13;;;;;;;7.40;5.90;;;;;;;21.61;56.79;98387.91;4131193;28;20631;-68
2022/05/23 06:48:15;;;;;;;7.60;5.73;;;;;;;20.62;59.00;98402.72;4128280;28;20567;-68
2022/05/23 06:50:17;;;;;;;6.73;6.00;;;;;;;21.14;58.08;98386.88;4129134;28;20296;-68
2022/05/23 06:52:19;;;;;;;9.27;5.70;;;;;;;20.43;59.45;98390.66;4134737;28;20234;-68
2022/05/23 06:54:22;;;;;;;8.10;5.70;;;;;;;21.57;57.08;98371.38;4134011;28;20610;-68
2022/05/23 06:56:24;;;;;;;7.17;5.40;;;;;;;20.88;58.24;98394.00;4134356;28;20240;-67
2022/05/23 06:58:26;;;;;;;6.93;5.93;;;;;;;20.99;58.27;98380.31;4132395;28;20230;-68
2022/05/23 07:00:27;;;;;;;7.63;5.77;;;;;;;21.24;57.99;98389.66;4128951;28;20237;-68
2022/05/23 07:02:29;;;;;;;7.10;5.90;;;;;;;21.98;56.46;98389.66;4133007;28;20623;-68
2022/05/23 07:12:19;;;;;;;8.00;5.60;;;;;;;22.13;55.90;98392.38;4134313;28;20237;-68
2022/05/23 07:13:53;;;;;;;8.50;5.17;;;;;;;22.48;54.44;98417.09;4130364;28;20328;-68
2022/05/23 07:15:57;;;;;;;5.67;4.63;;;;;;;22.18;55.44;98408.63;4131795;28;20288;-68
2022/05/23 07:17:58;;;;;;;6.87;4.80;;;;;;;21.33;58.06;98406.19;4134550;28;20670;-69
2022/05/23 07:20:01;;;;;;;5.93;5.00;;;;;;;21.13;58.30;98394.16;4128777;28;20287;-69
2022/05/23 07:22:03;;;;;;;5.77;4.40;;;;;;;21.81;56.86;98379.06;4137621;28;20230;-68
2022/05/23 07:24:05;;;;;;;11.67;4.70;;;;;;;20.20;59.29;98398.00;4137098;28;20238;-69
2022/05/23 07:26:09;;;;;;;6.57;4.87;;;;;;;21.34;58.37;98351.00;4136391;28;20233;-69
2022/05/23 07:28:12;;;;;;;7.77;5.27;;;;;;;20.53;58.96;98369.16;4137179;28;20241;-69
2022/05/23 07:30:13;;;;;;;7.07;4.90;;;;;;;21.66;57.08;98342.78;4129011;28;20237;-71
2022/05/23 07:32:16;;;;;;;6.37;4.60;;;;;;;22.66;55.62;98346.13;4135981;28;20627;-67
2022/05/23 07:34:18;;;;;;;5.53;4.40;;;;;;;22.64;54.75;98351.00;4139018;28;20229;-69
2022/05/23 07:36:20;;;;;;;7.40;4.97;;;;;;;22.71;55.62;98359.66;4132858;28;20447;-68
2022/05/23 07:38:23;;;;;;;6.77;4.80;;;;;;;20.77;58.82;98371.50;4136210;28;20280;-69
2022/05/23 07:40:25;;;;;;;7.20;4.77;;;;;;;21.50;58.15;98368.94;4136137;28;20245;-69
2022/05/23 07:42:28;;;;;;;7.97;5.73;;;;;;;19.74;62.57;98375.13;4136758;28;20304;-68
2022/05/23 07:44:30;;;;;;;5.30;4.57;;;;;;;20.48;59.57;98363.72;4123774;28;20230;-67
2022/05/23 07:46:31;;;;;;;6.80;4.50;;;;;;;20.82;60.11;98339.13;4130247;28;20221;-67
2022/05/23 07:48:33;;;;;;;6.63;5.10;;;;;;;21.97;57.55;98347.47;4132835;28;20234;-67
2022/05/23 07:50:36;;;;;;;7.80;5.50;;;;;;;21.59;59.03;98349.50;4131878;28;20616;-69
2022/05/23 07:52:38;;;;;;;6.10;5.13;;;;;;;21.98;58.54;98343.66;4128942;28;20691;-67
2022/05/23 08:01:42;;;;;;;7.40;5.70;;;;;;;23.20;55.06;98350.91;4128244;28;20546;-68
2022/05/23 08:03:46;;;;;;;8.30;5.50;;;;;;;22.58;56.16;98360.22;4127743;28;20296;-68
2022/05/23 08:05:48;;;;;;;8.40;5.80;;;;;;;22.57;55.55;98355.88;4130980;28;20329;-68
2022/05/23 08:07:49;;;;;;;9.47;5.63;;;;;;;23.67;52.89;98335.25;4128279;28;20288;-69
2022/05/23 08:09:51;;;;;;;5.97;5.17;;;;;;;23.48;53.61;98340.47;4133240;28;20241;-69
2022/05/23 08:11:53;;;;;;;9.20;5.90;;;;;;;21.23;58.96;98366.38;4134905;28;20233;-70
2022/05/23 08:13:56;;;;;;;6.38;5.00;;;;;;;21.38;60.25;98333.19;4127953;28;20230;-68
2022/05/23 08:15:58;;;;;;;6.85;5.40;;;;;;;21.77;59.33;98350.94;4128240;28;20288;-68
2022/05/23 08:18:00;;;;;;;6.20;5.40;;;;;;;21.02;60.87;98349.25;4125424;28;20230;-69
2022/05/23 08:20:01;;;;;;;5.73;5.13;;;;;;;23.00;56.62;98310.31;4129496;28;20284;-68
2022/05/23 08:22:03;;;;;;;7.20;5.75;;;;;;;23.30;55.80;98325.66;4131491;28;20769;-68
2022/05/23 08:24:05;;;;;;;6.78;5.18;;;;;;;23.24;55.71;98326.75;4123757;28;20230;-67
2022/05/23 08:26:07;;;;;;;5.80;5.20;;;;;;;23.67;54.26;98337.16;4129234;28;20225;-64
2022/05/23 08:28:08;;;;;;;6.53;5.22;;;;;;;23.96;54.20;98334.53;4129646;28;20230;-66
2022/05/23 08:30:11;;;;;;;6.10;5.00;;;;;;;23.41;55.57;98353.53;4129081;28;20387;-64
2022/05/23 08:32:14;;;;;;;6.88;5.38;;;;;;;24.28;52.68;98336.75;4132567;28;20230;-66
2022/05/23 08:34:16;;;;;;;7.00;5.28;;;;;;;24.19;53.56;98349.31;4125569;28;20289;-65
2022/05/23 08:36:18;;;;;;;7.45;5.78;;;;;;;24.41;53.53;98351.59;4131260;28;20401;-65
2022/05/23 08:38:20;;;;;;;6.55;5.28;;;;;;;24.67;52.34;98365.75;4127019;28;20564;-65
2022/05/23 08:40:59;;;;;;;5.90;5.30;;;;;;;23.62;54.97;98378.69;4129262;28;20253;-65
2022/05/23 08:43:05;;;;;;;7.18;5.53;;;;;;;24.53;52.60;98370.25;4122406;28;20262;-65
2022/05/23 08:45:37;;;;;;;6.45;5.22;;;;;;;23.68;54.99;98374.84;4126863;28;20922;-65
2022/05/23 08:47:55;;;;;;;7.30;5.80;;;;;;;24.41;53.37;98373.34;4130700;28;20690;-64
2022/05/23 08:50:18;;;;;;;6.57;5.85;;;;;;;24.59;53.20;98388.09;4128445;28;20259;-65
2022/05/23 08:52:24;;;;;;;7.72;6.57;;;;;;;24.18;53.95;98376.78;4131162;28;20281;-66
2022/05/23 08:54:35;;;;;;;7.63;6.40;;;;;;;24.62;54.03;98375.88;4133724;28;20327;-65
2022/05/23 08:56:42;;;;;;;8.75;6.55;;;;;;;24.52;53.29;98374.06;4127428;28;20933;-66
2022/05/23 08:58:58;;;;;;;7.82;6.28;;;;;;;25.12;53.23;98365.63;4126779;28;20763;-65
2022/05/23 09:01:07;;;;;;;9.48;6.45;;;;;;;25.07;52.97;98368.41;4134448;28;20233;-65
2022/05/23 09:03:25;;;;;;;8.23;6.20;;;;;;;24.48;54.06;98372.97;4126182;28;20300;-64
2022/05/23 09:05:33;;;;;;;6.65;5.93;;;;;;;24.64;53.37;98365.53;4130561;28;20238;-65
2022/05/23 09:07:58;;;;;;;7.13;6.32;;;;;;;25.45;52.33;98351.38;4129343;28;20493;-65
2022/05/23 09:10:08;;;;;;;6.55;5.95;;;;;;;25.52;52.21;98357.28;4134274;28;20229;-65
2022/05/23 09:12:15;;;;;;;7.72;6.93;;;;;;;25.46;52.06;98358.44;4133215;28;20296;-65
2022/05/23 09:14:19;;;;;;;9.63;7.30;;;;;;;24.59;53.55;98352.78;4129368;28;20927;-65
2022/05/23 09:16:24;;;;;;;8.20;7.30;;;;;;;25.45;52.03;98354.91;4131329;28;20234;-65
2022/05/23 09:18:30;;;;;;;6.82;6.13;;;;;;;24.62;54.82;98349.50;4135343;28;20234;-65
2022/05/23 09:20:43;;;;;;;8.45;6.45;;;;;;;25.71;52.55;98335.50;4131787;28;20222;-65
2022/05/23 09:22:50;;;;;;;7.15;5.90;;;;;;;25.30;53.13;98336.81;4119224;28;20711;-65
2022/05/23 09:24:56;;;;;;;7.43;5.90;;;;;;;24.92;53.17;98347.63;4126744;28;20800;-65
2022/05/23 09:27:00;;;;;;;8.73;6.07;;;;;;;25.47;52.18;98332.84;4108594;28;20233;-65
2022/05/23 09:29:03;;;;;;;7.82;5.72;;;;;;;25.19;52.65;98357.13;4129960;28;20309;-65
2022/05/23 09:31:30;;;;;;;9.63;6.28;;;;;;;25.21;52.52;98349.47;4128951;28;20269;-65
2022/05/23 09:33:43;;;;;;;7.97;5.97;;;;;;;25.14;53.27;98362.59;4132910;28;20766;-64
2022/05/23 09:36:06;;;;;;;9.85;6.40;;;;;;;25.44;52.27;98355.19;4127545;28;20230;-66
2022/05/23 09:38:22;;;;;;;10.07;6.05;;;;;;;25.18;51.29;98360.91;4130557;28;20313;-66
2022/05/23 09:40:31;;;;;;;8.13;6.30;;;;;;;25.87;50.79;98349.72;4129526;28;20284;-66
2022/05/23 09:49:46;;;;;;;7.80;6.60;;;;;;;25.34;52.78;98356.94;4130536;28;20487;-65
2022/05/23 09:52:14;;;;;;;8.27;6.82;;;;;;;25.07;52.78;98364.84;4129469;28;20290;-65
2022/05/23 09:54:22;;;;;;;8.20;6.55;;;;;;;25.77;51.92;98367.00;4126645;28;20311;-65
2022/05/23 09:56:23;;;;;;;8.45;5.72;;;;;;;25.68;51.82;98369.59;4134788;28;20689;-65
2022/05/23 09:58:34;;;;;;;9.50;6.18;;;;;;;25.51;52.68;98366.53;4134611;28;20657;-64
2022/05/23 10:00:38;;;;;;;8.07;6.70;;;;;;;24.91;54.26;98375.88;4130298;28;20243;-64
2022/05/23 10:02:50;;;;;;;8.52;6.55;;;;;;;24.77;54.03;98380.41;4132701;28;20771;-66
2022/05/23 10:04:51;;;;;;;8.05;6.50;;;;;;;24.64;54.40;98390.78;4130210;28;20229;-65
2022/05/23 10:06:54;;;;;;;10.38;6.97;;;;;;;24.75;54.94;98390.69;4117235;28;20230;-65
2022/05/23 10:08:56;;;;;;;7.95;6.80;;;;;;;25.07;54.42;98379.28;4115265;28;20269;-64
2022/05/23 10:11:05;;;;;;;7.93;5.55;;;;;;;24.97;54.57;98382.06;4115330;28;20298;-65
2022/05/23 10:13:24;;;;;;;7.65;5.85;;;;;;;25.15;54.71;98377.81;4115898;28;20241;-65
2022/05/23 10:15:28;;;;;;;11.43;6.93;;;;;;;24.80;55.49;98387.94;4111069;28;20304;-65
2022/05/23 10:17:37;;;;;;;10.07;5.72;;;;;;;24.67;55.75;98386.69;4117595;28;20300;-64
2022/05/23 10:19:38;;;;;;;9.93;5.63;;;;;;;23.07;59.23;98396.75;4120504;28;20237;-65
2022/05/23 10:21:43;;;;;;;9.00;5.55;;;;;;;23.61;57.98;98389.84;4118018;28;20235;-65
2022/05/23 10:24:04;;;;;;;6.97;6.15;;;;;;;23.82;58.86;98376.97;4120975;28;20234;-65
2022/05/23 10:26:15;;;;;;;9.32;7.15;;;;;;;22.70;61.72;98387.84;4112342;28;20227;-65
2022/05/23 10:28:41;;;;;;;11.07;7.28;;;;;;;23.84;59.56;98375.59;4117061;28;20273;-65
2022/05/23 10:30:59;;;;;;;8.25;7.00;;;;;;;23.28;61.00;98373.94;4112570;28;20231;-66